To NAV CANADA Home Page Login to a new session Search on AWWS site Feedback and Comments Disclaimer Vers la page française équivalente Tips FAQ What's new on the site To the Forecasts and Observations / NOTAM section To "File a Flight Plan" website Publications and other links Update of the User's profile FIC Telephone Numbers My Weather Data Folder Route Weather Data Regional Weather Data Local Weather Data To the Forecasts and Observations / NOTAM section
Request Generated 01/21/2017 at 02:12:38 UTC . Weather information available at that time is displayed.

METAR/TAF

If you find any discrepancies between the coded METAR/TAF and the plain language METAR/TAF please use the coded METAR/TAF. LWIS bulletins are not decoded in plain language.

VANCOUVER INTL/BC    (show WxCam)

METAR CYVR 210200Z 32005KT 30SM OVC086 05/04 A2914 RMK AC8 SLP870=
METAR
LOCATION
CYVR - VANCOUVER INTL/BC
DATE - TIME
21 JANUARY 2017 - 0200 UTC
WIND
320 TRUE @ 5  KNOTS
VISIBILITY
30 STAT.  MILES
RUNWAY VISUAL RANGE
WEATHER
CLOUDINESS
OVERCAST 8600  FT
TEMP / DEWPOINT
5 C / 4 C
ALTIMETER
29.14 IN HG
RECENT WEATHER
WIND SHEAR

METAR CYVR 210100Z 30005KT 30SM BKN085 OVC110 05/04 A2914 RMK AC7AC1 SLP869=
METAR
LOCATION
CYVR - VANCOUVER INTL/BC
DATE - TIME
21 JANUARY 2017 - 0100 UTC
WIND
300 TRUE @ 5  KNOTS
VISIBILITY
30 STAT.  MILES
RUNWAY VISUAL RANGE
WEATHER
CLOUDINESS
BROKEN CLOUDS (5/8 - 7/8) 8500  FT
OVERCAST 11000  FT
TEMP / DEWPOINT
5 C / 4 C
ALTIMETER
29.14 IN HG
RECENT WEATHER
WIND SHEAR

METAR CYVR 210000Z 29008KT 30SM BKN083 BKN180 OVC250 05/04 A2914 RMK AC6AC1CS1 SLP869=
METAR
LOCATION
CYVR - VANCOUVER INTL/BC
DATE - TIME
21 JANUARY 2017 - 0000 UTC
WIND
290 TRUE @ 8  KNOTS
VISIBILITY
30 STAT.  MILES
RUNWAY VISUAL RANGE
WEATHER
CLOUDINESS
BROKEN CLOUDS (5/8 - 7/8) 8300  FT
BROKEN CLOUDS (5/8 - 7/8) 18000  FT
OVERCAST 25000  FT
TEMP / DEWPOINT
5 C / 4 C
ALTIMETER
29.14 IN HG
RECENT WEATHER
WIND SHEAR

TAF CYVR 202338Z 2100/2206 28007KT P6SM FEW040 BKN080 FM210900 08006KT P6SM FEW030 BKN060 TEMPO 2109/2124 P6SM -SHRA FM220000 09015G25KT P6SM -SHRA OVC030 TEMPO 2200/2206 5SM -SHRA BR OVC020 RMK NXT FCST BY 210300Z=
TAF
LOCATION

CYVR - VANCOUVER INTL/BC
VALIDITY [UTC]
20 JAN - 2338 to
22 JAN - 0600
 
TIMES
[UTC]
WIND
[DEGREES TRUE]
VISIBILITY
[STAT. MILES]
WEATHER
CLOUDINESS
[FEET AGL]
 
21 JAN - 0000 to
21 JAN - 0900
280 @ 7 KNOTS
6+
NIL
4000 FEW
8000 BROKEN
 
21 JAN - 0900 to
22 JAN - 0000
80 @ 6 KNOTS
6+
NIL
3000 FEW
6000 BROKEN
TEMPORARY CHANGES
21 JAN - 0900 to
22 JAN - 0000
 
6+
LIGHT RAIN SHOWER
 
 
22 JAN - 0000 to
22 JAN - 0600
90 @ 15 KNOTS
GUSTS 25 KNOTS
6+
LIGHT RAIN SHOWER
3000 OVERCAST
TEMPORARY CHANGES
22 JAN - 0000 to
22 JAN - 0600
 
5
LIGHT RAIN SHOWER
MIST
2000 OVERCAST
REMARKS
THE NEXT FORECAST WILL BE ISSUED BY 0300 UTC ON DAY 21


Your time UTC time
Weather data provided by Environment Canada and NAV CANADA